Time;durP1;ratioP1;P1;durP2;ratioP2;P2;SDS_P1;SDS_P2;PMS_P1;PMS_P2;Temp;Humidity;BMP_temperature;BMP_pressure;BME280_temperature;BME280_humidity;BME280_pressure;Samples;Min_cycle;Max_cycle;Signal;HPM_P1;HPM_P2
2024/03/05 00:00:35;;;;;;;19.80;13.20;;;;;;;9.31;57.43;99699.67;104977;1260;72592;-65
2024/03/05 00:03:44;;;;;;;20.10;13.80;;;;;;;9.25;57.68;99697.42;105323;1256;60578;-66
2024/03/05 00:06:55;;;;;;;18.20;13.70;;;;;;;9.55;57.10;99700.70;104929;1260;59790;-65
2024/03/05 00:09:30;;;;;;;24.00;14.40;;;;;;;9.74;56.19;99695.98;104923;1256;73696;-64
2024/03/05 00:12:35;;;;;;;23.10;14.90;;;;;;;9.69;55.83;99695.09;103939;1259;69123;-64
2024/03/05 00:15:09;;;;;;;20.60;15.00;;;;;;;9.69;55.90;99697.54;104709;1261;72908;-65
2024/03/05 00:18:52;;;;;;;17.90;14.40;;;;;;;9.23;57.38;99695.93;105377;1261;62527;-63
2024/03/05 00:22:04;;;;;;;20.70;14.60;;;;;;;9.12;58.38;99700.38;104837;1258;59953;-63
2024/03/05 00:25:16;;;;;;;20.90;14.70;;;;;;;9.12;58.97;99700.36;104727;1260;72940;-64
2024/03/05 00:27:49;;;;;;;19.80;14.40;;;;;;;9.12;59.09;99697.73;104555;1261;69084;-63
2024/03/05 00:30:18;;;;;;;22.50;14.80;;;;;;;9.03;58.90;99700.70;104225;1273;72593;-63
2024/03/05 00:34:03;;;;;;;21.50;14.90;;;;;;;9.00;59.19;99696.96;104286;1262;62138;-62
2024/03/05 00:36:33;;;;;;;23.10;15.00;;;;;;;9.46;57.61;99698.77;105784;1262;59807;-63
2024/03/05 00:40:15;;;;;;;21.80;14.80;;;;;;;9.55;56.56;99701.05;104966;1257;74529;-63
2024/03/05 00:43:20;;;;;;;17.20;14.00;;;;;;;9.49;56.92;99695.87;104180;1262;70862;-63
2024/03/05 00:47:03;;;;;;;22.90;15.40;;;;;;;9.35;57.40;99696.39;105735;1260;73987;-64
2024/03/05 00:50:18;;;;;;;20.60;14.90;;;;;;;9.26;57.57;99698.10;105551;1257;60986;-64
2024/03/05 00:52:52;;;;;;;20.70;14.90;;;;;;;8.94;59.03;99701.17;104295;1268;59894;-63
2024/03/05 00:56:26;;;;;;;25.20;16.30;;;;;;;8.87;59.50;99702.30;104717;1261;72528;-63
2024/03/05 00:59:38;;;;;;;20.30;15.20;;;;;;;8.86;59.34;99700.92;105202;1261;71040;-63
2024/03/05 01:02:12;;;;;;;22.70;15.30;;;;;;;9.16;59.19;99697.40;104827;1261;72941;-63
2024/03/05 01:05:10;;;;;;;;;;;;;;;9.16;58.59;99697.77;104370;1263;60941;-63
2024/03/05 01:08:34;;;;;;;;;;;;;;;8.91;60.96;99697.95;105264;1262;60253;-63
2024/03/05 01:11:46;;;;;;;;;;;;;;;8.92;61.41;99699.50;107103;1259;72831;-64
2024/03/05 01:14:50;;;;;;;;;;;;;;;8.97;61.52;99697.03;105427;1261;69650;-63
2024/03/05 01:17:57;;;;;;;;;;;;;;;8.97;61.63;99694.27;104335;1260;73549;-64
2024/03/05 01:21:21;;;;;;;;;;;;;;;9.01;62.31;99692.55;105277;1257;62678;-63
2024/03/05 01:24:32;;;;;;;;;;;;;;;9.05;62.07;99691.53;105680;1259;59714;-65
2024/03/05 01:27:24;;;;;;;;;;;;;;;9.01;62.49;99691.13;104610;1260;73611;-66
2024/03/05 01:29:52;;;;;;;;;;;;;;;9.25;61.39;99692.19;105352;1261;68367;-63
2024/03/05 01:32:57;;;;;;;;;;;;;;;9.33;60.54;99691.38;104903;1260;75448;-63
2024/03/05 01:36:03;;;;;;;;;;;;;;;9.39;60.11;99688.02;104285;1258;61558;-63
2024/03/05 01:38:43;;;;;;;;;;;;;;;9.43;59.45;99690.67;104417;1262;60087;-63
2024/03/05 01:41:10;;;;;;;;;;;;;;;9.43;59.68;99688.23;105780;1261;73757;-63
2024/03/05 01:44:24;;;;;;;;;;;;;;;9.39;59.51;99690.31;104822;1259;68162;-64
2024/03/05 01:46:58;;;;;;;;;;;;;;;9.33;59.80;99693.12;106158;1256;75273;-64
2024/03/05 01:50:03;;;;;;;;;;;;;;;9.35;60.24;99691.30;104221;1261;62210;-63
2024/03/05 01:52:59;;;;;;;;;;;;;;;9.32;60.28;99694.02;104243;1270;59787;-63
2024/03/05 01:56:25;;;;;;;;;;;;;;;9.33;60.49;99694.33;105351;1259;73523;-64
2024/03/05 01:59:39;;;;;;;;;;;;;;;9.32;60.34;99697.20;104913;1257;69596;-63
2024/03/05 02:02:44;;;;;;;;;;;;;;;9.26;60.17;99695.83;104753;1257;75682;-63
2024/03/05 02:06:07;;;;;;;;;;;;;;;9.21;60.41;99695.33;105528;1257;61260;-62
2024/03/05 02:09:00;;;;;;;;;;;;;;;9.19;60.84;99693.83;104796;1257;59849;-63
2024/03/05 02:12:07;;;;;;;;;;;;;;;9.14;60.78;99692.23;105795;1257;74554;-65
2024/03/05 02:15:22;;;;;;;;;;;;;;;9.14;61.46;99697.66;106661;1260;70707;-65
2024/03/05 02:18:27;;;;;;;;;;;;;;;9.13;61.81;99700.84;104189;1277;73212;-63
2024/03/05 02:21:31;;;;;;;;;;;;;;;9.09;61.33;99703.77;104872;1257;62077;-63
2024/03/05 02:24:37;;;;;;;;;;;;;;;9.03;61.63;99703.84;104329;1259;59751;-63
2024/03/05 02:28:01;;;;;;;;;;;;;;;9.01;62.04;99706.17;104285;1260;71917;-64
2024/03/05 02:30:35;;;;;;;;;;;;;;;9.01;62.01;99704.79;105054;1261;70207;-64
2024/03/05 02:33:42;;;;;;;;;;;;;;;8.95;62.36;99703.90;104503;1264;72833;-65
2024/03/05 02:36:34;;;;;;;;;;;;;;;8.93;62.52;99705.91;104671;1257;60767;-65
2024/03/05 02:39:07;;;;;;;;;;;;;;;8.94;62.72;99705.37;104213;1279;59929;-62
2024/03/05 02:42:12;;;;;;;;;;;;;;;8.90;61.97;99706.90;104529;1257;74372;-62
2024/03/05 02:45:18;;;;;;;;;;;;;;;8.83;62.44;99708.57;105274;1259;70768;-62
2024/03/05 02:48:23;;;;;;;;;;;;;;;8.80;63.24;99708.48;104189;1261;74001;-62
2024/03/05 02:51:28;;;;;;;;;;;;;;;8.84;63.41;99707.65;104842;1269;62697;-67
2024/03/05 02:54:52;;;;;;;;;;;;;;;8.85;63.49;99707.09;107131;1257;59848;-66
2024/03/05 02:57:56;;;;;;;;;;;;;;;8.84;63.60;99703.26;104235;1262;74690;-66
2024/03/05 03:00:24;;;;;;;;;;;;;;;8.84;63.55;99699.94;105979;1256;69479;-63
2024/03/05 03:03:48;;;;;;;;;;;;;;;8.84;63.31;99695.05;104719;1257;74524;-65
2024/03/05 03:06:22;;;;;;;;;;;;;;;8.79;62.93;99701.35;104095;1257;60512;-64
2024/03/05 03:09:14;;;;;;;;;;;;;;;8.72;63.57;99702.27;104963;1268;61701;-67
2024/03/05 03:12:19;;;;;;;;;;;;;;;8.71;63.27;99699.67;105197;1254;72744;-65
2024/03/05 03:15:24;;;;;;;;;;;;;;;8.71;63.46;99699.71;104386;1270;70127;-65
2024/03/05 03:18:29;;;;;;;;;;;;;;;8.61;63.96;99700.91;104716;1254;74034;-65
2024/03/05 03:21:53;;;;;;;;;;;;;;;8.58;64.10;99701.17;104686;1254;61580;-65
2024/03/05 03:25:16;;;;;;;;;;;;;;;8.56;64.59;99699.48;104808;1257;60424;-64
2024/03/05 03:28:40;;;;;;;;;;;;;;;8.58;64.79;99699.94;105316;1254;72636;-65
2024/03/05 03:31:48;;;;;;;;;;;;;;;8.56;64.93;99699.14;104723;1257;72671;-64
2024/03/05 03:34:24;;;;;;;;;;;;;;;8.57;65.22;99696.49;105976;1254;72545;-65
2024/03/05 03:37:12;;;;;;;;;;;;;;;8.58;65.27;99692.08;105230;1258;61176;-65
2024/03/05 03:40:36;;;;;;;;;;;;;;;8.56;65.66;99693.91;104756;1258;60572;-64
2024/03/05 03:43:10;;;;;;;;;;;;;;;8.67;64.94;99691.26;104628;1254;73593;-65
2024/03/05 03:46:15;;;;;;;;;;;;;;;8.76;63.65;99695.85;104444;1270;70449;-65
2024/03/05 03:49:41;;;;;;;;;;;;;;;8.76;62.80;99698.64;105177;1257;73988;-64
2024/03/05 03:52:18;;;;;;;;;;;;;;;8.75;62.76;99699.58;105436;1257;60753;-64
2024/03/05 03:55:23;;;;;;;;;;;;;;;8.72;63.05;99700.52;104861;1254;61569;-63
2024/03/05 03:58:17;;;;;;;;;;;;;;;8.72;62.97;99699.67;105714;1254;74205;-64
2024/03/05 04:01:29;;;;;;;;;;;;;;;8.70;63.93;99701.83;105920;1254;70057;-64
2024/03/05 04:04:34;;;;;;;;;;;;;;;8.74;63.28;99698.20;104853;1257;74115;-63
2024/03/05 04:07:38;;;;;;;;;;;;;;;8.69;63.46;99699.92;105252;1254;61280;-65
2024/03/05 04:11:01;;;;;;;;;;;;;;;8.68;63.87;99702.07;104522;1255;60622;-63
2024/03/05 04:13:38;;;;;;;;;;;;;;;8.68;64.13;99704.70;105336;1254;73709;-63
2024/03/05 04:17:02;;;;;;;;;;;;;;;8.58;63.46;99705.55;105308;1255;70604;-64
2024/03/05 04:19:35;;;;;;;;;;;;;;;8.53;64.21;99705.20;104940;1255;74483;-64
2024/03/05 04:22:59;;;;;;;;;;;;;;;8.52;63.60;99711.16;105858;1254;62656;-64
2024/03/05 04:26:08;;;;;;;;;;;;;;;8.58;63.97;99709.40;105426;1254;60499;-64
2024/03/05 04:29:19;;;;;;;;;;;;;;;8.59;64.37;99712.87;104489;1262;75227;-62
2024/03/05 04:32:31;;;;;;;;;;;;;;;8.62;64.07;99712.41;104402;1258;69274;-62
2024/03/05 04:35:24;;;;;;;;;;;;;;;8.66;63.94;99716.99;104657;1254;72936;-62
2024/03/05 04:38:52;;;;;;;;;;;;;;;8.70;63.61;99715.98;104973;1253;62551;-63
2024/03/05 04:41:41;;;;;;;;;;;;;;;8.92;62.35;99718.90;104593;1260;60544;-62
2024/03/05 04:44:34;;;;;;;;;;;;;;;8.98;61.44;99715.73;104897;1260;74685;-61
2024/03/05 04:47:39;;;;;;;;;;;;;;;9.00;61.04;99716.01;105511;1257;70717;-63
2024/03/05 04:50:46;;;;;;;;;;;;;;;9.00;61.33;99714.08;105279;1256;72365;-63
2024/03/05 04:53:50;;;;;;;;;;;;;;;8.99;61.53;99708.69;104724;1257;62553;-63
2024/03/05 04:57:08;;;;;;;;;;;;;;;9.04;61.45;99709.21;104796;1254;60575;-59
2024/03/05 04:59:55;;;;;;;;;;;;;;;9.13;61.15;99710.65;105392;1257;73718;-64
2024/03/05 05:03:19;;;;;;;;;;;;;;;9.14;61.00;99710.98;104360;1259;72782;-63
2024/03/05 05:06:25;;;;;;;;;;;;;;;9.11;61.13;99709.67;104332;1258;73975;-65
2024/03/05 05:09:11;;;;;;;;;;;;;;;9.11;60.71;99704.77;104745;1253;60735;-68
2024/03/05 05:12:36;;;;;;;;;;;;;;;9.06;60.57;99709.16;104467;1265;61193;-66
2024/03/05 05:15:41;;;;;;;;;;;;;;;9.04;60.23;99712.70;104858;1266;74251;-66
2024/03/05 05:18:46;;;;;;;;;;;;;;;8.94;60.02;99713.76;104890;1254;69924;-66
2024/03/05 05:22:10;;;;;;;;;;;;;;;8.92;60.57;99717.67;107141;1255;73082;-64
2024/03/05 05:24:47;;;;;;;;;;;;;;;8.92;61.01;99720.11;108009;1253;61001;-62
2024/03/05 05:28:11;;;;;;;;;;;;;;;9.02;61.25;99720.65;108289;1254;60674;-63
2024/03/05 05:30:43;;;;;;;;;;;;;;;8.90;61.17;99718.08;108060;1253;73584;-61
2024/03/05 05:34:06;;;;;;;;;;;;;;;8.76;62.46;99720.85;108168;1253;69727;-61
2024/03/05 05:36:43;;;;;;;;;;;;;;;8.77;63.01;99724.31;108080;1253;72896;-65
2024/03/05 05:40:10;;;;;;;;;;;;;;;8.82;63.25;99724.16;108183;1253;61469;-63
2024/03/05 05:42:58;;;;;;;;;;;;;;;8.82;62.97;99728.52;107967;1254;59653;-65
2024/03/05 05:45:31;;;;;;;;;;;;;;;8.77;63.10;99730.42;107760;1254;74024;-65
2024/03/05 05:48:55;;;;;;;;;;;;;;;8.75;63.36;99736.08;107975;1254;69912;-65
2024/03/05 05:52:21;;;;;;;;;;;;;;;8.75;63.64;99739.23;108052;1254;72285;-64
2024/03/05 05:58:51;;;;;;;;;;;;;;;8.89;63.89;99736.31;101743;1292;602006;-64
2024/03/05 06:01:56;;;;;;;;;;;;;;;8.90;64.11;99736.80;104131;1269;60450;-65
2024/03/05 06:05:03;;;;;;;;;;;;;;;8.92;63.79;99736.70;105101;1256;59705;-66
2024/03/05 06:08:10;;;;;;;;;;;;;;;8.96;63.76;99736.59;104833;1256;73968;-66
2024/03/05 06:11:36;;;;;;;;;;;;;;;9.03;63.39;99732.69;101873;1253;5314564;-66
2024/03/05 06:14:41;;;;;;;;;;;;;;;9.02;63.11;99730.79;106035;1253;72256;-65
2024/03/05 06:18:06;;;;;;;;;;;;;;;9.07;63.55;99725.38;104989;1253;62490;-64
2024/03/05 06:21:30;;;;;;;;;;;;;;;9.12;63.09;99726.06;105859;1253;61453;-67
2024/03/05 06:24:57;;;;;;;;;;;;;;;9.08;63.17;99723.06;104944;1253;73556;-66
2024/03/05 06:28:21;;;;;;;;;;;;;;;9.12;63.30;99727.28;105044;1256;68832;-65
2024/03/05 06:31:39;;;;;;;;;;;;;;;9.19;63.65;99727.05;104829;1256;71754;-67
2024/03/05 06:34:46;;;;;;;;;;;;;;;9.39;62.85;99730.90;105910;1253;60753;-64
2024/03/05 06:37:50;;;;;;;;;;;;;;;9.42;62.58;99729.37;106780;1253;59626;-66
2024/03/05 06:41:14;;;;;;;;;;;;;;;9.50;61.82;99727.16;106217;1258;73764;-67
2024/03/05 06:44:40;;;;;;;;;;;;;;;9.59;61.68;99727.34;105042;1253;70114;-67
2024/03/05 06:47:56;;;;;;;;;;;;;;;9.65;61.67;99728.17;105041;1254;71350;-65
2024/03/05 06:50:42;;;;;;;;;;;;;;;9.80;61.00;99733.23;106132;1253;61272;-67
2024/03/05 06:57:08;;;;;;;;;;;;;;;9.85;60.96;99735.30;105874;1253;73023;-67
2024/03/05 06:59:39;;;;;;;;;;;;;;;9.98;60.35;99733.91;106619;1254;68694;-70
2024/03/05 07:02:30;;;;;;;;;;;;;;;9.91;60.09;99737.00;105100;1258;71809;-68
2024/03/05 07:05:22;;;;;;;;;;;;;;;10.03;60.18;99732.30;107153;1256;61348;-68
2024/03/05 07:08:27;;;;;;;;;;;;;;;10.17;59.76;99732.29;107642;1253;59667;-69
2024/03/05 07:11:33;;;;;;;;;;;;;;;10.22;59.74;99731.55;104608;1259;74109;-68
2024/03/05 07:14:38;;;;;;;;;;;;;;;10.27;59.81;99726.46;104558;1256;71032;-67
2024/03/05 07:18:02;;;;;;;;;;;;;;;10.39;59.07;99724.43;105353;1257;72538;-67
2024/03/05 07:21:28;;;;;;;;;;;;;;;10.46;58.63;99726.44;104343;1270;61727;-67
2024/03/05 07:24:08;;;;;;;;;;;;;;;10.58;58.15;99723.14;105418;1254;59771;-68
2024/03/05 07:27:35;;;;;;;;;;;;;;;10.69;57.61;99726.16;104438;1253;74944;-67
2024/03/05 07:30:41;;;;;;;;;;;;;;;10.82;57.09;99726.52;106316;1255;69630;-66
2024/03/05 07:33:47;;;;;;;;;;;;;;;10.98;56.95;99726.36;105923;1258;73818;-66
2024/03/05 07:37:16;;;;;;;;;;;;;;;11.01;56.63;99723.42;105138;1257;62566;-65
2024/03/05 07:40:24;;;;;;;;;;;;;;;11.15;56.54;99728.25;104960;1258;61478;-65
2024/03/05 07:43:47;;;;;;;;;;;;;;;11.25;56.56;99727.30;105271;1257;74818;-66
2024/03/05 07:47:10;;;;;;;;;;;;;;;11.43;55.97;99724.21;105961;1253;69825;-66
2024/03/05 07:50:33;;;;;;;;;;;;;;;11.59;55.54;99717.16;106423;1253;73466;-65
2024/03/05 07:53:27;;;;;;;;;;;;;;;11.78;54.88;99717.84;105621;1259;61587;-65
2024/03/05 07:56:05;;;;;;;;;;;;;;;11.91;54.76;99710.42;104973;1252;60103;-64
2024/03/05 07:58:35;;;;;;;;;;;;;;;12.05;54.05;99711.70;105856;1258;73143;-66
2024/03/05 08:01:04;;;;;;;;;;;;;;;12.15;54.00;99711.91;105064;1258;68382;-67
2024/03/05 08:03:51;;;;;;;;;;;;;;;12.19;53.50;99713.69;104984;1257;72514;-63
2024/03/05 08:06:45;;;;;;;;;;;;;;;12.28;53.64;99715.00;104851;1258;61118;-66
2024/03/05 08:09:49;;;;;;;;;;;;;;;12.34;53.12;99714.73;104465;1257;60831;-66
2024/03/05 08:12:55;;;;;;;;;;;;;;;12.41;52.93;99707.84;105382;1256;74374;-65
2024/03/05 08:16:04;;;;;;;;;;;;;;;12.54;52.46;99706.02;104867;1256;71093;-64
2024/03/05 08:19:07;;;;;;;;;;;;;;;12.72;51.65;99706.34;105983;1254;74852;-68
2024/03/05 08:22:03;;;;;;;;;;;;;;;12.69;51.73;99696.07;105468;1253;63050;-67
2024/03/05 08:25:15;;;;;;;;;;;;;;;12.91;51.40;99702.73;105089;1255;61848;-65
2024/03/05 08:28:06;;;;;;;;;;;;;;;12.77;51.43;99684.29;106284;1252;73923;-66
2024/03/05 08:30:42;;;;;;;;;;;;;;;13.02;51.16;99703.73;105439;1253;69407;-65
2024/03/05 08:33:49;;;;;;;;;;;;;;;13.19;50.73;99698.27;104796;1253;76309;-63
2024/03/05 08:36:54;;;;;;;;;;;;;;;13.24;50.26;99697.13;104496;1256;61095;-63
2024/03/05 08:39:58;;;;;;;;;;;;;;;13.35;49.52;99699.40;104565;1269;63450;-63
2024/03/05 08:42:29;;;;;;;;;;;;;;;13.43;49.89;99697.72;104964;1252;72738;-64
2024/03/05 08:45:25;;;;;;;;;;;;;;;13.50;49.70;99697.86;104636;1259;71777;-63
2024/03/05 08:47:54;;;;;;;;;;;;;;;13.60;49.21;99700.19;104669;1257;72600;-62
2024/03/05 08:51:18;;;;;;;;;;;;;;;13.82;48.29;99700.55;106051;1253;61710;-63
2024/03/05 08:54:13;;;;;;;;;;;;;;;14.03;48.42;99703.25;105293;1253;59701;-63
2024/03/05 08:57:09;;;;;;;;;;;;;;;14.18;48.51;99698.86;105222;1257;72952;-63
2024/03/05 09:00:26;;;;;;;;;;;;;;;14.36;48.10;99697.32;104375;1275;70706;-62
2024/03/05 09:03:11;;;;;;;;;;;;;;;14.49;47.77;99697.83;104521;1261;74466;-63
2024/03/05 09:06:35;;;;;;;;;;;;;;;14.58;47.08;99695.01;104656;1253;60847;-62
2024/03/05 09:09:30;;;;;;;;;;;;;;;14.65;47.44;99688.67;105634;1258;59742;-63
2024/03/05 09:12:55;;;;;;;;;;;;;;;14.78;47.18;99689.10;104739;1257;72831;-62
2024/03/05 09:16:19;;;;;;;;;;;;;;;14.86;46.46;99682.27;104627;1269;70394;-61
2024/03/05 09:19:31;;;;;;;;;;;;;;;14.97;46.08;99678.77;104819;1258;71389;-62
2024/03/05 09:22:35;;;;;;;;;;;;;;;15.09;46.18;99679.86;107421;1253;60833;-60
2024/03/05 09:25:41;;;;;;;;;;;;;;;15.08;46.09;99676.91;105287;1258;61421;-61
2024/03/05 09:29:06;;;;;;;;;;;;;;;15.06;45.76;99673.63;104993;1253;74855;-61
2024/03/05 09:32:01;;;;;;;;;;;;;;;15.18;44.78;99675.24;105260;1256;71095;-62
2024/03/05 09:34:54;;;;;;;;;;;;;;;15.34;44.96;99676.53;105294;1262;74633;-61
2024/03/05 09:37:59;;;;;;;;;;;;;;;15.44;44.63;99675.91;106046;1256;62523;-62
2024/03/05 09:40:27;;;;;;;;;;;;;;;15.50;44.67;99676.92;105034;1252;61683;-62
2024/03/05 09:43:51;;;;;;;;;;;;;;;15.54;44.34;99674.92;104982;1257;72770;-61
2024/03/05 09:46:57;;;;;;;;;;;;;;;16.13;43.42;99673.89;105964;1255;69161;-61
2024/03/05 09:50:21;;;;;;;;;;;;;;;15.78;43.57;99669.05;105086;1253;72892;-62
2024/03/05 09:53:45;;;;;;;;;;;;;;;15.94;43.66;99667.48;105386;1252;61568;-62
2024/03/05 09:56:50;;;;;;;;;;;;;;;16.03;43.67;99657.55;106660;1253;59686;-62
2024/03/05 09:59:55;;;;;;;;;;;;;;;16.12;43.13;99662.27;106286;1253;74473;-65
2024/03/05 10:02:59;;;;;;;;;;;;;;;16.32;43.07;99654.55;105668;1253;70830;-65
2024/03/05 10:05:34;;;;;;;;;;;;;;;16.30;43.09;99651.52;104619;1253;72482;-63
2024/03/05 10:08:05;;;;;;;;;;;;;;;16.42;43.01;99644.56;106359;1254;61031;-62
2024/03/05 10:10:52;;;;;;;;;;;;;;;16.57;42.55;99643.53;105370;1254;59810;-62
2024/03/05 10:13:30;;;;;;;;;;;;;;;16.79;41.85;99643.14;105378;1258;73501;-62
2024/03/05 10:16:35;;;;;;;;;;;;;;;16.96;41.78;99638.63;104694;1258;70712;-62
2024/03/05 10:19:43;;;;;;;;;;;;;;;17.18;41.00;99641.46;106683;1256;72238;-63
2024/03/05 10:23:07;;;;;;;;;;;;;;;17.51;40.40;99636.32;104996;1266;63362;-62
2024/03/05 10:26:24;;;;;;;;;;;;;;;17.68;39.83;99635.27;107913;1255;59614;-64
2024/03/05 10:29:48;;;;;;;;;;;;;;;17.80;40.10;99633.19;107660;1253;74450;-62
2024/03/05 10:32:40;;;;;;;;;;;;;;;17.98;39.62;99632.27;106958;1254;69950;-65
2024/03/05 10:35:33;;;;;;;;;;;;;;;18.01;39.76;99631.30;106749;1255;74535;-64
2024/03/05 10:38:25;;;;;;;;;;;;;;;18.06;39.65;99621.20;104598;1262;62845;-64
2024/03/05 10:44:03;;;;;;;18.30;13.40;;;;;;;17.72;40.60;99620.50;102090;1291;616628;-64
2024/03/05 10:46:32;;;;;;;21.10;14.00;;;;;;;18.66;38.08;99616.50;105203;1265;60301;-64
2024/03/05 10:49:40;;;;;;;19.30;13.90;;;;;;;18.68;37.84;99611.38;104202;1266;60142;-63
2024/03/05 10:52:50;;;;;;;17.60;13.00;;;;;;;18.61;37.79;99610.81;104328;1267;71843;-62
2024/03/05 10:55:55;;;;;;;25.60;15.20;;;;;;;18.26;38.14;99608.36;104639;1262;69312;-63
2024/03/05 11:01:48;;;;;;;16.50;13.20;;;;;;;18.14;38.12;99602.55;106042;1255;59711;-64
2024/03/05 11:04:53;;;;;;;16.80;12.90;;;;;;;18.18;37.87;99598.98;104997;1255;60672;-63
2024/03/05 11:07:26;;;;;;;20.70;13.00;;;;;;;18.05;37.91;99597.83;104693;1253;72040;-63
2024/03/05 11:09:59;;;;;;;20.00;13.70;;;;;;;17.99;37.93;99597.61;105220;1253;69464;-63
2024/03/05 11:13:32;;;;;;;17.70;14.30;;;;;;;17.56;38.25;99598.95;106564;1252;73238;-63
2024/03/05 11:16:43;;;;;;;25.60;15.60;;;;;;;17.39;38.65;99597.67;104956;1251;60066;-65
2024/03/05 11:19:15;;;;;;;19.30;14.60;;;;;;;17.42;38.68;99595.52;105298;1257;60056;-64
2024/03/05 11:21:54;;;;;;;25.60;15.60;;;;;;;17.34;38.62;99596.48;106422;1252;73887;-64
2024/03/05 11:24:21;;;;;;;25.30;15.60;;;;;;;17.12;38.87;99596.92;106185;1253;69525;-64
2024/03/05 11:27:45;;;;;;;24.90;15.20;;;;;;;17.15;38.87;99596.35;105315;1253;72599;-64
2024/03/05 11:30:31;;;;;;;26.80;16.90;;;;;;;17.00;39.10;99596.71;106436;1253;60821;-66
2024/03/05 11:33:09;;;;;;;19.80;15.70;;;;;;;17.05;39.29;99596.66;105039;1256;61418;-65
2024/03/05 11:36:23;;;;;;;20.60;14.50;;;;;;;17.22;39.12;99600.64;105228;1255;74690;-63
2024/03/05 11:39:28;;;;;;;22.50;14.80;;;;;;;17.23;38.71;99596.14;105588;1253;68611;-61
2024/03/05 11:42:02;;;;;;;18.80;12.90;;;;;;;17.24;38.47;99588.45;105647;1252;72777;-60
2024/03/05 11:45:06;;;;;;;17.50;12.60;;;;;;;17.16;38.57;99588.88;106361;1252;59881;-61
2024/03/05 11:48:11;;;;;;;15.50;12.40;;;;;;;17.37;38.23;99591.58;106577;1251;60189;-62
2024/03/05 11:51:22;;;;;;;24.90;11.90;;;;;;;17.50;38.25;99592.98;105748;1251;74610;-61
2024/03/05 11:54:26;;;;;;;15.50;12.50;;;;;;;17.48;37.63;99593.10;105757;1254;68513;-61
2024/03/05 11:56:58;;;;;;;17.00;12.30;;;;;;;17.54;37.45;99592.85;104376;1252;71714;-60
2024/03/05 11:59:40;;;;;;;18.40;13.90;;;;;;;17.59;37.52;99594.45;106131;1255;60463;-62
2024/03/05 12:02:45;;;;;;;21.40;13.10;;;;;;;17.60;37.31;99590.69;105454;1251;60664;-64
2024/03/05 12:05:20;;;;;;;18.80;13.40;;;;;;;17.68;37.43;99590.99;107459;1251;72911;-62
2024/03/05 12:08:00;;;;;;;17.60;12.10;;;;;;;17.73;37.68;99590.77;107792;1251;68644;-63
2024/03/05 12:10:34;;;;;;;16.60;13.20;;;;;;;17.75;37.19;99593.64;106794;1252;74473;-62
2024/03/05 12:13:39;;;;;;;18.80;13.40;;;;;;;17.71;37.61;99590.74;105806;1253;59635;-62
2024/03/05 12:17:03;;;;;;;19.10;13.90;;;;;;;17.62;37.39;99593.03;106105;1251;60292;-64
2024/03/05 12:19:31;;;;;;;17.30;12.50;;;;;;;17.56;37.41;99589.93;105184;1251;73521;-64
2024/03/05 12:22:17;;;;;;;18.30;13.10;;;;;;;17.43;37.42;99582.18;105519;1252;70256;-66
2024/03/05 12:24:44;;;;;;;18.00;13.40;;;;;;;17.39;37.41;99592.67;105910;1253;71425;-65
2024/03/05 12:27:11;;;;;;;16.90;12.40;;;;;;;17.30;37.29;99581.67;104941;1253;60509;-66
2024/03/05 12:29:41;;;;;;;19.20;12.10;;;;;;;17.76;36.67;99587.39;106037;1251;61092;-67
2024/03/05 12:32:52;;;;;;;21.00;12.90;;;;;;;17.90;36.23;99588.50;105400;1252;73769;-66
2024/03/05 12:35:26;;;;;;;15.00;11.50;;;;;;;17.91;36.00;99590.07;105916;1253;70430;-66
2024/03/05 12:38:33;;;;;;;16.50;11.20;;;;;;;17.82;36.02;99587.31;106200;1255;76021;-64
2024/03/05 12:41:26;;;;;;;20.60;13.00;;;;;;;17.83;35.98;99590.05;105626;1251;61211;-66
2024/03/05 12:44:14;;;;;;;;;;;;;;;17.85;35.75;99584.79;107236;1251;61106;-65
2024/03/05 12:47:24;;;;;;;21.40;11.50;;;;;;;17.85;35.93;99583.57;105223;1252;73203;-66
2024/03/05 12:49:53;;;;;;;21.70;12.80;;;;;;;17.18;36.50;99584.43;106330;1251;70639;-66
2024/03/05 12:53:00;;;;;;;17.90;12.20;;;;;;;16.99;36.75;99585.45;105683;1253;72264;-64
2024/03/05 12:55:34;;;;;;;16.80;11.80;;;;;;;16.92;36.99;99584.53;106948;1251;61665;-66
2024/03/05 12:58:11;;;;;;;16.30;12.70;;;;;;;16.91;37.09;99585.45;105972;1251;60284;-66
2024/03/05 13:01:59;;;;;;;17.20;11.90;;;;;;;16.87;37.08;99588.04;105782;1252;72506;-64
2024/03/05 13:05:04;;;;;;;17.80;11.90;;;;;;;16.84;37.31;99586.49;105698;1252;70136;-64
2024/03/05 13:07:39;;;;;;;16.10;12.20;;;;;;;16.78;37.13;99585.09;106706;1252;72880;-66
2024/03/05 13:10:50;;;;;;;14.60;11.40;;;;;;;16.86;37.09;99581.76;105763;1253;61093;-64
2024/03/05 13:14:21;;;;;;;14.00;11.00;;;;;;;17.03;36.40;99581.61;106633;1252;60331;-66
2024/03/05 13:17:09;;;;;;;17.60;11.60;;;;;;;17.01;36.53;99583.55;105741;1251;74797;-66
2024/03/05 13:20:19;;;;;;;14.10;11.70;;;;;;;16.96;36.59;99587.27;106568;1252;69587;-65
2024/03/05 13:26:28;;;;;;;16.00;12.40;;;;;;;16.99;36.73;99588.27;105485;1253;61081;-63
2024/03/05 13:28:55;;;;;;;17.60;11.40;;;;;;;16.92;36.66;99587.71;106890;1251;60544;-60
2024/03/05 13:34:53;;;;;;;15.50;11.90;;;;;;;16.96;36.59;99595.38;105297;1251;70095;-62
2024/03/05 13:41:15;;;;;;;18.60;12.60;;;;;;;17.09;36.22;99600.50;106391;1251;60300;-61
2024/03/05 13:47:38;;;;;;;19.20;13.50;;;;;;;17.46;36.13;99598.58;106682;1251;72349;-62
2024/03/05 13:53:40;;;;;;;18.20;11.70;;;;;;;17.45;36.18;99600.27;106549;1251;72705;-63
2024/03/05 13:56:51;;;;;;;16.30;10.80;;;;;;;17.31;36.25;99599.11;106508;1251;60072;-62
2024/03/05 14:02:54;;;;;;;11.10;9.60;;;;;;;17.64;35.96;99590.20;106514;1253;72775;-61
2024/03/05 14:06:05;;;;;;;15.00;9.90;;;;;;;17.58;35.97;99588.35;106781;1254;69869;-61
2024/03/05 14:08:35;;;;;;;13.40;9.90;;;;;;;17.54;35.81;99591.32;106823;1251;73200;-61
2024/03/05 14:14:24;;;;;;;14.30;10.10;;;;;;;17.51;35.76;99593.77;105848;1251;59670;-61
2024/03/05 14:20:23;;;;;;;14.40;9.70;;;;;;;17.51;35.80;99593.05;105839;1251;73164;-61
2024/03/05 14:23:35;;;;;;;13.20;9.70;;;;;;;17.50;35.75;99598.80;104535;1255;72766;-59
2024/03/05 14:26:08;;;;;;;12.70;10.30;;;;;;;17.50;35.69;99600.59;107270;1252;60768;-60
2024/03/05 14:28:41;;;;;;;11.20;9.80;;;;;;;17.49;35.56;99601.59;106072;1252;60456;-61
2024/03/05 14:34:40;;;;;;;10.50;9.20;;;;;;;17.30;35.57;99599.02;107178;1250;69565;-60
2024/03/05 14:37:13;;;;;;;17.00;10.40;;;;;;;17.27;35.67;99600.80;105705;1251;72478;-61
2024/03/05 14:42:44;;;;;;;16.60;11.10;;;;;;;17.18;35.67;99603.63;105088;1252;59982;-60
2024/03/05 14:45:14;;;;;;;12.70;10.80;;;;;;;17.14;35.83;99605.32;105339;1251;74182;-60
2024/03/05 14:48:23;;;;;;;15.00;10.60;;;;;;;17.03;35.90;99603.20;105356;1251;69045;-61
2024/03/05 14:54:28;;;;;;;18.30;11.50;;;;;;;17.07;35.91;99611.46;105179;1251;60307;-60
2024/03/05 14:57:38;;;;;;;13.40;10.30;;;;;;;16.98;36.02;99612.62;105352;1253;60143;-60
2024/03/05 15:03:17;;;;;;;16.20;11.50;;;;;;;16.97;36.16;99619.73;104637;1256;69371;-61
2024/03/05 15:05:50;;;;;;;13.80;11.80;;;;;;;16.92;36.25;99622.44;105949;1251;72544;-61
2024/03/05 15:09:07;;;;;;;18.80;11.80;;;;;;;16.97;36.10;99618.91;106096;1253;60156;-60
2024/03/05 15:15:37;;;;;;;14.90;10.80;;;;;;;16.79;36.52;99623.98;104531;1255;74442;-62
2024/03/05 15:18:48;;;;;;;16.90;11.10;;;;;;;16.81;36.46;99627.73;104796;1254;69444;-61
2024/03/05 15:24:44;;;;;;;13.50;11.30;;;;;;;16.85;36.31;99633.50;105240;1251;61709;-61
2024/03/05 15:28:01;;;;;;;14.30;11.00;;;;;;;16.88;36.35;99633.27;105280;1256;60627;-62
2024/03/05 15:30:39;;;;;;;15.80;10.50;;;;;;;16.70;36.71;99640.15;106845;1253;72370;-63
2024/03/05 15:33:13;;;;;;;14.30;10.40;;;;;;;16.68;36.80;99646.65;104418;1255;69497;-62
2024/03/05 15:36:21;;;;;;;15.30;10.90;;;;;;;16.73;36.57;99649.16;105497;1251;72500;-60
2024/03/05 15:38:57;;;;;;;13.30;9.70;;;;;;;16.64;36.62;99648.33;105130;1256;60852;-60
2024/03/05 15:41:30;;;;;;;13.40;11.00;;;;;;;16.63;36.61;99649.85;105503;1255;60458;-60
2024/03/05 15:44:43;;;;;;;14.60;11.20;;;;;;;16.61;36.55;99648.42;104755;1251;72928;-60